Etusivu
METAR-TAF:

METAR-TAF

Lentoasemat :

Genova, Italia

Leveyspiiri: 44-25N, Pituuspiiri: 008-51E, korkeus merenpinnasta: 2 m

Tämänhetkinen sää

Tämä raportti tehtiin 18 minuuttia sitten, kello 13.20 UTC
Tuuli 14 kn etelästä/kaakosta
Lämpötila 20°C
Kosteus 78%
Ilmanpaine 1017 hPa
Näkyvyys 10 km tai enemmän
Hajanaisia pilviä 1200 ft:n korkeudessa
Muutamia pilviä 1200 ft:n korkeudessa, Kasvava cumulus-pilvi.
Hajonneita pilviä 2800 ft:n korkeudessa

METAR: LIMJ 181320Z 15014KT 9999 SCT012 FEW012TCU BKN028 20/16 Q1017

Aika: 15:38 (13:38 UTC)

Sääennuste

Tämä raportti tehtiin 2 tuntia ja 38 minuuttia sitten, kello 11.00 UTC
Ennuste voimassa 18. päivästä klo 12 UTC - 19. päivään klo 12 UTC
Tuuli 8 kn kaakosta
Näkyvyys 10 km tai enemmän
Hajanaisia pilviä 1500 ft:n korkeudessa
Hajonneita pilviä 2500 ft:n korkeudessa
Ajoittain
18. päivästä klo 12 UTC - 19. päivään klo 12 UTC
sadetta

TAF: LIMJ 181100Z 1812/1912 14008KT 9999 SCT015 BKN025 TEMPO 1812/1912 RA

Säähavainnot ja -ennusteet yli 4000 lentoasemalta (METAR- ja TAF-raportit).

Käytössä olevat sääasemat on merkitty karttaan keltaisilla ja punaisilla pisteillä.

Aseta hiiri pisteen päälle nähdäksesi sääaseman nimen.

Klikkaa sitten nähdäksesi säähavainnot ja -ennusteet.

Kartan vaihtaminen: klikkaa mustalla rastilla varustettuja vihreitä pisteitä, niin voit zoomata sisään; viivalla varustettua vihreää pistettä, niin voit zoomata ulos tai vihreitä nuolia, niin pääset viereisille kartoille.


METAR-TAF: